createdAt,value
2022-09-28T00:01:24.956Z,2.38
2022-09-28T00:03:54.959Z,2.47
2022-09-28T00:06:27.112Z,2.80
2022-09-28T00:08:55.049Z,2.15
2022-09-28T00:11:24.415Z,2.78
2022-09-28T00:13:53.561Z,2.47
2022-09-28T00:16:24.303Z,2.15
2022-09-28T00:18:52.467Z,2.55
2022-09-28T00:21:22.522Z,2.67
2022-09-28T00:24:12.141Z,2.35
2022-09-28T00:26:54.393Z,1.90
2022-09-28T00:29:31.781Z,3.03
2022-09-28T00:32:02.703Z,2.30
2022-09-28T00:34:32.211Z,2.10
2022-09-28T00:37:00.909Z,2.40
2022-09-28T00:39:28.052Z,3.10
2022-09-28T00:41:55.632Z,2.83
2022-09-28T00:44:32.273Z,2.63
2022-09-28T00:47:20.458Z,2.70
2022-09-28T00:49:58.024Z,2.40
2022-09-28T00:52:50.046Z,2.65
2022-09-28T00:55:22.131Z,3.10
2022-09-28T00:57:56.221Z,2.58
2022-09-28T01:00:23.511Z,2.92
2022-09-28T01:02:51.019Z,2.63
2022-09-28T01:05:19.166Z,2.58
2022-09-28T01:07:47.248Z,2.88
2022-09-28T01:10:14.679Z,2.42
2022-09-28T01:12:41.832Z,2.47
2022-09-28T01:15:09.841Z,2.83
2022-09-28T01:17:59.048Z,2.80
2022-09-28T01:21:22.503Z,3.25
2022-09-28T01:24:04.288Z,2.90
2022-09-28T01:27:05.888Z,3.03
2022-09-28T01:29:59.748Z,2.80
2022-09-28T01:32:39.707Z,2.78
2022-09-28T01:35:17.615Z,2.90
2022-09-28T01:37:47.577Z,3.33
2022-09-28T01:40:16.317Z,2.97
2022-09-28T01:42:47.149Z,3.08
2022-09-28T01:45:25.659Z,3.40
2022-09-28T01:47:58.493Z,2.75
2022-09-28T01:50:29.525Z,2.35
2022-09-28T01:53:06.494Z,3.10
2022-09-28T01:55:47.029Z,2.63
2022-09-28T01:58:44.645Z,2.58
2022-09-28T02:01:25.565Z,2.95
2022-09-28T02:04:03.455Z,2.78
2022-09-28T02:06:39.174Z,3.00
2022-09-28T02:09:14.164Z,2.38
2022-09-28T02:11:54.012Z,2.75
2022-09-28T02:14:22.830Z,2.50
2022-09-28T02:16:54.574Z,2.55
2022-09-28T02:19:29.887Z,2.50
2022-09-28T02:22:03.478Z,2.60
2022-09-28T02:24:33.731Z,2.03
2022-09-28T02:27:06.281Z,2.47
2022-09-28T02:29:34.724Z,2.28
2022-09-28T02:32:02.044Z,2.13
2022-09-28T02:34:29.335Z,2.42
2022-09-28T02:36:56.668Z,3.40
2022-09-28T02:39:24.329Z,2.50
2022-09-28T02:42:20.589Z,2.20
2022-09-28T02:44:59.101Z,2.22
2022-09-28T02:47:34.048Z,2.15
2022-09-28T02:50:07.731Z,2.80
2022-09-28T02:53:08.082Z,2.13
2022-09-28T02:56:06.733Z,2.58
2022-09-28T02:58:53.020Z,3.15
2022-09-28T03:01:41.074Z,2.50
2022-09-28T03:04:17.314Z,2.28
2022-09-28T03:06:53.774Z,2.17
2022-09-28T03:09:40.383Z,2.00
2022-09-28T03:12:11.652Z,1.88
2022-09-28T03:14:38.950Z,2.13
2022-09-28T03:17:06.789Z,2.00
2022-09-28T03:19:35.108Z,2.30
2022-09-28T03:22:02.647Z,2.15
2022-09-28T03:24:29.891Z,1.70
2022-09-28T03:26:57.075Z,1.80
2022-09-28T03:29:24.326Z,2.00
2022-09-28T03:31:57.960Z,2.53
2022-09-28T03:34:25.141Z,2.42
2022-09-28T03:36:52.246Z,1.70
2022-09-28T03:39:19.419Z,2.58
2022-09-28T03:41:46.540Z,1.88
2022-09-28T03:44:13.957Z,1.42
2022-09-28T03:46:41.220Z,1.40
2022-09-28T03:49:10.646Z,1.60
2022-09-28T03:51:37.775Z,1.48
2022-09-28T03:54:05.329Z,2.00
2022-09-28T03:56:32.419Z,1.83
2022-09-28T03:58:59.774Z,2.05
2022-09-28T04:01:27.447Z,2.03
2022-09-28T04:03:58.642Z,1.88
2022-09-28T04:06:26.415Z,1.63
2022-09-28T04:08:53.750Z,2.20
2022-09-28T04:11:21.353Z,2.33
2022-09-28T04:13:52.759Z,1.90
2022-09-28T04:16:20.238Z,1.80
2022-09-28T04:19:09.707Z,1.75
2022-09-28T04:21:46.217Z,2.40
2022-09-28T04:24:14.865Z,2.35
2022-09-28T04:26:41.994Z,2.05
2022-09-28T04:29:18.363Z,2.35
2022-09-28T04:31:56.816Z,2.63
2022-09-28T04:34:37.117Z,1.70
2022-09-28T04:37:06.174Z,1.88
2022-09-28T04:39:33.285Z,2.15
2022-09-28T04:42:01.441Z,2.10
2022-09-28T04:44:29.477Z,2.38
2022-09-28T04:47:04.356Z,1.98
2022-09-28T04:49:40.372Z,1.45
2022-09-28T04:52:15.799Z,1.63
2022-09-28T04:54:46.120Z,1.70
2022-09-28T04:57:14.218Z,1.65
2022-09-28T04:59:45.144Z,1.67
2022-09-28T05:02:15.766Z,1.70
2022-09-28T05:05:19.348Z,1.70
2022-09-28T05:08:17.745Z,2.08
2022-09-28T05:10:45.831Z,2.40
2022-09-28T05:13:14.518Z,2.30
2022-09-28T05:15:43.443Z,2.47
2022-09-28T05:18:14.426Z,1.90
2022-09-28T05:20:47.969Z,2.05
2022-09-28T05:23:15.764Z,2.47
2022-09-28T05:25:45.570Z,2.75
2022-09-28T05:28:29.054Z,2.20
2022-09-28T05:31:34.414Z,1.95
2022-09-28T05:34:12.663Z,2.15
2022-09-28T05:36:41.586Z,2.30
2022-09-28T05:39:09.990Z,2.15
2022-09-28T05:41:37.145Z,2.17
2022-09-28T05:44:05.506Z,2.00
2022-09-28T05:46:32.618Z,1.75
2022-09-28T05:49:01.953Z,1.98
2022-09-28T05:51:29.326Z,1.92
2022-09-28T05:53:58.884Z,1.75
2022-09-28T05:56:31.510Z,2.10
2022-09-28T05:58:58.959Z,1.92
2022-09-28T06:01:29.177Z,2.15
2022-09-28T06:03:58.280Z,2.15
2022-09-28T06:06:26.107Z,2.55
2022-09-28T06:08:53.324Z,1.58
2022-09-28T06:11:39.184Z,1.80
2022-09-28T06:14:14.529Z,2.10
2022-09-28T06:16:43.961Z,1.60
2022-09-28T06:19:12.826Z,1.73
2022-09-28T06:22:00.117Z,2.50
2022-09-28T06:24:27.861Z,2.10
2022-09-28T06:26:54.978Z,1.40
2022-09-28T06:29:22.563Z,1.95
2022-09-28T06:31:49.737Z,2.30
2022-09-28T06:34:19.369Z,1.83
2022-09-28T06:36:46.511Z,1.83
2022-09-28T06:39:14.213Z,2.30
2022-09-28T06:41:42.070Z,2.17
2022-09-28T06:44:15.365Z,2.20
2022-09-28T06:47:06.369Z,1.95
2022-09-28T06:49:51.455Z,2.53
2022-09-28T06:52:27.615Z,2.40
2022-09-28T06:55:16.116Z,2.58
2022-09-28T06:57:44.776Z,2.40
2022-09-28T07:00:12.720Z,2.78
2022-09-28T07:02:40.097Z,2.20
2022-09-28T07:05:30.127Z,2.78
2022-09-28T07:08:18.367Z,2.10
2022-09-28T07:11:08.215Z,2.47
2022-09-28T07:14:04.564Z,2.30
2022-09-28T07:16:54.182Z,2.30
2022-09-28T07:19:19.178Z,1.90
2022-09-28T07:21:53.979Z,2.08
2022-09-28T07:24:27.665Z,3.22
2022-09-28T07:27:13.787Z,2.60
2022-09-28T07:29:55.173Z,2.53
2022-09-28T07:32:34.828Z,2.75
2022-09-28T07:35:20.317Z,2.50
2022-09-28T07:38:00.645Z,3.38
2022-09-28T07:40:52.219Z,2.67
2022-09-28T07:43:21.840Z,3.10
2022-09-28T07:45:53.244Z,3.22
2022-09-28T07:48:21.906Z,4.18
2022-09-28T07:51:00.294Z,3.20
2022-09-28T07:53:33.511Z,3.13
2022-09-28T07:56:14.247Z,3.10
2022-09-28T07:58:53.996Z,3.03
2022-09-28T08:03:56.477Z,2.88
2022-09-28T08:06:24.109Z,3.25
2022-09-28T08:08:53.196Z,3.47
2022-09-28T08:11:21.726Z,3.35
2022-09-28T08:14:11.338Z,3.25
2022-09-28T08:16:57.317Z,3.65
2022-09-28T08:20:05.990Z,4.18
2022-09-28T08:22:33.475Z,3.10
2022-09-28T08:25:01.463Z,3.78
2022-09-28T08:27:29.519Z,3.33
2022-09-28T08:29:56.826Z,3.42
2022-09-28T08:32:49.692Z,3.20
2022-09-28T08:35:35.390Z,4.40
2022-09-28T08:38:26.962Z,3.25
2022-09-28T08:41:22.550Z,2.85
2022-09-28T08:44:01.984Z,3.25
2022-09-28T08:46:53.727Z,3.55
2022-09-28T08:49:50.544Z,3.00
2022-09-28T08:52:30.012Z,2.60
2022-09-28T08:55:31.484Z,2.50
2022-09-28T08:58:28.497Z,2.22
2022-09-28T09:00:55.771Z,1.92
2022-09-28T09:03:33.194Z,1.52
2022-09-28T09:06:40.036Z,1.65
2022-09-28T09:10:05.902Z,1.85
2022-09-28T09:13:03.420Z,1.42
2022-09-28T09:15:33.535Z,1.90
2022-09-28T09:18:44.259Z,2.03
2022-09-28T09:21:47.628Z,1.63
2022-09-28T09:24:27.643Z,1.95
2022-09-28T09:27:28.138Z,1.25
2022-09-28T09:30:07.243Z,1.80
2022-09-28T09:33:12.774Z,1.92
2022-09-28T09:36:08.731Z,1.88
2022-09-28T09:39:33.172Z,1.70
2022-09-28T09:42:52.509Z,2.20
2022-09-28T09:45:52.990Z,1.95
2022-09-28T09:49:02.025Z,1.95
2022-09-28T09:51:48.212Z,2.30
2022-09-28T09:54:40.870Z,2.70
2022-09-28T09:57:24.338Z,2.10
2022-09-28T10:00:04.457Z,1.98
2022-09-28T10:03:03.271Z,2.35
2022-09-28T10:05:39.578Z,2.10
2022-09-28T10:08:09.759Z,3.05
2022-09-28T10:10:49.339Z,1.52
2022-09-28T10:13:18.447Z,1.92
2022-09-28T10:15:47.776Z,1.63
2022-09-28T10:18:21.857Z,1.35
2022-09-28T10:21:14.967Z,1.65
2022-09-28T10:24:02.888Z,1.83
2022-09-28T10:26:38.058Z,2.30
2022-09-28T10:29:17.510Z,2.70
2022-09-28T10:31:48.624Z,1.70
2022-09-28T10:34:30.734Z,1.80
2022-09-28T10:37:11.576Z,1.70
2022-09-28T10:39:59.212Z,1.63
2022-09-28T10:42:32.929Z,1.10
2022-09-28T10:45:23.545Z,1.20
2022-09-28T10:47:51.571Z,1.25
2022-09-28T10:50:25.673Z,1.30
2022-09-28T10:53:30.547Z,1.25
2022-09-28T10:56:22.944Z,1.17
2022-09-28T10:58:56.763Z,1.25
2022-09-28T11:01:33.975Z,1.00
2022-09-28T11:04:10.702Z,1.55
2022-09-28T11:06:40.417Z,1.00
2022-09-28T11:09:32.131Z,1.13
2022-09-28T11:12:07.456Z,1.73
2022-09-28T11:14:42.448Z,1.75
2022-09-28T11:17:28.381Z,1.30
2022-09-28T11:20:23.549Z,1.50
2022-09-28T11:23:17.811Z,1.35
2022-09-28T11:25:58.228Z,1.45
2022-09-28T11:28:32.841Z,1.85
2022-09-28T11:31:03.834Z,1.90
2022-09-28T11:33:51.233Z,1.63
2022-09-28T11:37:18.310Z,1.95
2022-09-28T11:39:59.554Z,1.70
2022-09-28T11:42:43.097Z,1.90
2022-09-28T11:45:49.432Z,1.90
2022-09-28T11:48:24.137Z,1.60
2022-09-28T11:51:03.944Z,2.10
2022-09-28T11:53:53.499Z,2.30
2022-09-28T11:56:34.790Z,2.63
2022-09-28T11:59:27.823Z,2.33
2022-09-28T12:02:00.298Z,2.47
2022-09-28T12:05:01.575Z,2.42
2022-09-28T12:07:44.087Z,1.92
2022-09-28T12:10:44.692Z,2.35
2022-09-28T12:13:23.010Z,2.05
2022-09-28T12:19:16.151Z,2.40
2022-09-28T12:21:46.640Z,2.15
2022-09-28T12:24:28.394Z,2.58
2022-09-28T12:27:10.691Z,1.80
2022-09-28T12:29:52.063Z,2.58
2022-09-28T12:32:51.398Z,2.70
2022-09-28T12:35:43.228Z,2.20
2022-09-28T12:38:28.589Z,2.20
2022-09-28T12:41:33.954Z,1.90
2022-09-28T12:44:25.356Z,2.38
2022-09-28T12:47:11.208Z,2.20
2022-09-28T12:53:02.944Z,2.22
2022-09-28T12:55:37.744Z,2.25
2022-09-28T12:58:26.873Z,1.65
2022-09-28T13:01:14.386Z,2.42
2022-09-28T13:04:13.433Z,2.75
2022-09-28T13:06:45.133Z,2.38
2022-09-28T13:09:20.132Z,2.47
2022-09-28T13:11:54.955Z,2.60
2022-09-28T13:14:34.300Z,2.70
2022-09-28T13:17:20.159Z,2.75
2022-09-28T13:20:14.038Z,2.80
2022-09-28T13:22:45.971Z,2.42
2022-09-28T13:25:20.640Z,1.90
2022-09-28T13:28:06.714Z,2.88
2022-09-28T13:30:36.682Z,2.40
2022-09-28T13:33:07.945Z,2.35
2022-09-28T13:35:35.424Z,3.15
2022-09-28T13:38:18.782Z,2.55
2022-09-28T13:44:01.340Z,2.72
2022-09-28T13:46:52.871Z,2.05
2022-09-28T13:49:20.360Z,2.10
2022-09-28T13:52:05.548Z,1.90
2022-09-28T13:54:50.625Z,2.50
2022-09-28T13:57:25.582Z,2.00
2022-09-28T14:00:11.026Z,1.98
2022-09-28T14:03:13.460Z,2.65
2022-09-28T14:05:53.128Z,2.28
2022-09-28T14:08:40.802Z,2.10
2022-09-28T14:11:27.222Z,2.22
2022-09-28T14:14:14.687Z,1.50
2022-09-28T14:16:43.217Z,1.70
2022-09-28T14:19:31.883Z,1.35
2022-09-28T14:22:05.160Z,1.80
2022-09-28T14:24:50.550Z,1.52
2022-09-28T14:27:17.812Z,1.50
2022-09-28T14:29:46.027Z,1.55
2022-09-28T14:32:14.182Z,1.55
2022-09-28T14:34:45.116Z,2.28
2022-09-28T14:37:51.551Z,1.33
2022-09-28T14:40:47.178Z,1.67
2022-09-28T14:43:37.197Z,1.73
2022-09-28T14:46:17.350Z,1.50
2022-09-28T14:48:55.941Z,2.00
2022-09-28T14:51:34.038Z,1.52
2022-09-28T14:54:13.116Z,1.25
2022-09-28T14:56:49.906Z,1.10
2022-09-28T14:59:30.460Z,1.13
2022-09-28T15:02:01.599Z,1.60
2022-09-28T15:04:31.100Z,1.25
2022-09-28T15:06:58.370Z,1.60
2022-09-28T15:09:34.070Z,1.50
2022-09-28T15:12:25.425Z,1.25
2022-09-28T15:14:59.668Z,1.60
2022-09-28T15:17:32.097Z,1.55
2022-09-28T15:20:37.116Z,1.45
2022-09-28T15:23:04.437Z,1.23
2022-09-28T15:25:33.172Z,1.60
2022-09-28T15:28:13.587Z,1.33
2022-09-28T15:30:40.979Z,1.77
2022-09-28T15:33:43.074Z,1.75
2022-09-28T15:36:16.983Z,1.80
2022-09-28T15:38:55.962Z,1.30
2022-09-28T15:41:25.057Z,1.55
2022-09-28T15:44:10.825Z,0.95
2022-09-28T15:46:41.849Z,1.35
2022-09-28T15:49:25.817Z,1.50
2022-09-28T15:51:58.384Z,1.70
2022-09-28T15:54:48.933Z,1.45
2022-09-28T15:57:38.048Z,1.55
2022-09-28T16:00:28.391Z,1.70
2022-09-28T16:03:19.317Z,2.67
2022-09-28T16:06:06.193Z,2.42
2022-09-28T16:08:33.347Z,1.60
2022-09-28T16:11:12.911Z,2.33
2022-09-28T16:14:09.248Z,1.40
2022-09-28T16:16:49.269Z,1.60
2022-09-28T16:19:32.693Z,1.83
2022-09-28T16:24:34.249Z,1.77
2022-09-28T16:27:05.433Z,2.08
2022-09-28T16:29:39.319Z,2.00
2022-09-28T16:32:25.371Z,1.52
2022-09-28T16:35:21.974Z,2.47
2022-09-28T16:37:59.022Z,1.63
2022-09-28T16:40:27.419Z,2.00
2022-09-28T16:42:59.772Z,2.22
2022-09-28T16:45:29.782Z,1.77
2022-09-28T16:47:58.397Z,2.30
2022-09-28T16:50:26.562Z,2.05
2022-09-28T16:53:20.461Z,2.28
2022-09-28T16:55:49.975Z,2.90
2022-09-28T16:58:17.286Z,2.35
2022-09-28T17:00:45.987Z,2.55
2022-09-28T17:03:18.955Z,2.85
2022-09-28T17:05:48.732Z,2.28
2022-09-28T17:08:22.718Z,1.83
2022-09-28T17:11:14.986Z,2.33
2022-09-28T17:13:47.382Z,2.30
2022-09-28T17:16:25.289Z,2.13
2022-09-28T17:19:18.619Z,2.03
2022-09-28T17:21:47.139Z,2.38
2022-09-28T17:24:14.294Z,1.73
2022-09-28T17:26:44.596Z,1.92
2022-09-28T17:29:16.174Z,2.40
2022-09-28T17:31:45.179Z,2.05
2022-09-28T17:34:15.573Z,2.38
2022-09-28T17:36:45.845Z,2.17
2022-09-28T17:39:16.236Z,1.83
2022-09-28T17:41:43.758Z,2.47
2022-09-28T17:44:11.315Z,2.50
2022-09-28T17:46:46.011Z,2.15
2022-09-28T17:49:14.234Z,3.33
2022-09-28T17:51:41.540Z,2.38
2022-09-28T17:54:09.002Z,2.15
2022-09-28T17:56:36.888Z,1.92
2022-09-28T17:59:10.461Z,1.70
2022-09-28T18:01:40.287Z,1.80
2022-09-28T18:04:22.956Z,1.75
2022-09-28T18:06:59.754Z,1.55
2022-09-28T18:09:26.838Z,1.63
2022-09-28T18:12:01.188Z,2.50
2022-09-28T18:14:28.699Z,1.92
2022-09-28T18:16:55.862Z,2.08
2022-09-28T18:19:23.024Z,2.28
2022-09-28T18:21:50.140Z,1.80
2022-09-28T18:24:17.399Z,2.90
2022-09-28T18:26:44.501Z,1.83
2022-09-28T18:29:11.591Z,1.92
2022-09-28T18:31:38.710Z,2.20
2022-09-28T18:34:06.400Z,1.90
2022-09-28T18:36:36.318Z,1.70
2022-09-28T18:39:03.902Z,1.48
2022-09-28T18:41:31.047Z,2.10
2022-09-28T18:44:01.155Z,1.58
2022-09-28T18:46:30.330Z,1.83
2022-09-28T18:48:57.653Z,2.28
2022-09-28T18:51:24.792Z,1.92
2022-09-28T18:53:51.895Z,2.55
2022-09-28T18:56:21.250Z,1.83
2022-09-28T18:58:51.928Z,1.98
2022-09-28T19:01:36.564Z,1.65
2022-09-28T19:04:07.416Z,1.98
2022-09-28T19:06:37.239Z,2.00
2022-09-28T19:09:04.874Z,1.48
2022-09-28T19:11:32.659Z,1.40
2022-09-28T19:13:59.815Z,1.30
2022-09-28T19:16:29.259Z,0.98
2022-09-28T19:18:58.263Z,1.30
2022-09-28T19:21:25.853Z,1.13
2022-09-28T19:23:56.168Z,1.20
2022-09-28T19:26:25.786Z,1.02
2022-09-28T19:28:54.080Z,1.20
2022-09-28T19:31:21.916Z,0.95
2022-09-28T19:33:49.190Z,1.13
2022-09-28T19:36:23.898Z,1.25
2022-09-28T19:38:53.820Z,1.25
2022-09-28T19:41:44.424Z,1.38
2022-09-28T19:44:26.559Z,1.10
2022-09-28T19:46:58.380Z,0.93
2022-09-28T19:49:27.589Z,1.10
2022-09-28T19:52:11.949Z,1.20
2022-09-28T19:54:39.839Z,1.10
2022-09-28T19:57:09.037Z,1.10
2022-09-28T19:59:37.717Z,1.27
2022-09-28T20:02:07.236Z,1.63
2022-09-28T20:04:35.150Z,1.08
2022-09-28T20:07:03.861Z,0.80
2022-09-28T20:09:32.667Z,1.17
2022-09-28T20:11:59.945Z,0.77
2022-09-28T20:14:31.990Z,1.08
2022-09-28T20:17:04.023Z,1.10
2022-09-28T20:19:31.126Z,1.50
2022-09-28T20:22:02.956Z,0.93
2022-09-28T20:24:31.741Z,1.75
2022-09-28T20:26:59.504Z,1.02
2022-09-28T20:29:26.971Z,1.17
2022-09-28T20:31:54.039Z,1.20
2022-09-28T20:34:21.962Z,1.77
2022-09-28T20:36:49.146Z,1.25
2022-09-28T20:39:16.428Z,1.17
2022-09-28T20:41:43.780Z,1.63
2022-09-28T20:44:10.884Z,1.67
2022-09-28T20:46:38.435Z,1.20
2022-09-28T20:49:07.477Z,1.10
2022-09-28T20:51:34.813Z,1.60
2022-09-28T20:54:01.979Z,1.50
2022-09-28T20:56:34.825Z,1.40
2022-09-28T20:59:01.900Z,1.50
2022-09-28T21:01:30.812Z,1.27
2022-09-28T21:04:00.006Z,1.80
2022-09-28T21:06:30.019Z,1.25
2022-09-28T21:08:57.643Z,1.23
2022-09-28T21:11:26.564Z,1.13
2022-09-28T21:13:58.812Z,1.63
2022-09-28T21:16:28.443Z,0.98
2022-09-28T21:18:56.293Z,1.35
2022-09-28T21:21:24.526Z,1.27
2022-09-28T21:23:55.983Z,1.17
2022-09-28T21:26:26.149Z,1.13
2022-09-28T21:28:54.394Z,1.55
2022-09-28T21:31:27.718Z,1.23
2022-09-28T21:33:58.436Z,1.20
2022-09-28T21:36:25.995Z,0.95
2022-09-28T21:38:57.181Z,1.00
2022-09-28T21:41:28.937Z,1.10
2022-09-28T21:43:56.783Z,1.20
2022-09-28T21:46:24.946Z,1.30
2022-09-28T21:48:53.736Z,0.90
2022-09-28T21:51:21.790Z,1.65
2022-09-28T21:53:49.526Z,1.05
2022-09-28T21:56:17.683Z,1.30
2022-09-28T21:58:44.869Z,1.38
2022-09-28T22:01:15.590Z,1.20
2022-09-28T22:03:44.785Z,1.33
2022-09-28T22:06:12.317Z,1.73
2022-09-28T22:08:40.116Z,1.05
2022-09-28T22:11:11.504Z,1.20
2022-09-28T22:13:45.771Z,1.20
2022-09-28T22:16:14.444Z,1.08
2022-09-28T22:18:42.342Z,1.30
2022-09-28T22:21:26.166Z,1.65
2022-09-28T22:23:53.731Z,1.20
2022-09-28T22:26:25.837Z,1.08
2022-09-28T22:28:55.877Z,1.40
2022-09-28T22:31:28.482Z,1.55
2022-09-28T22:33:56.330Z,1.00
2022-09-28T22:36:23.943Z,1.58
2022-09-28T22:38:51.107Z,1.02
2022-09-28T22:41:23.190Z,1.70
2022-09-28T22:43:52.210Z,1.20
2022-09-28T22:46:24.524Z,1.20
2022-09-28T22:48:54.725Z,1.13
2022-09-28T22:51:23.261Z,1.65
2022-09-28T22:53:50.368Z,1.30
2022-09-28T22:56:19.044Z,1.20
2022-09-28T22:58:47.378Z,2.00
2022-09-28T23:01:23.119Z,1.85
2022-09-28T23:03:52.396Z,1.33
2022-09-28T23:06:21.988Z,1.25
2022-09-28T23:08:51.528Z,1.98
2022-09-28T23:11:19.133Z,1.40
2022-09-28T23:13:53.709Z,1.33
2022-09-28T23:16:23.907Z,1.80
2022-09-28T23:18:51.912Z,1.00
2022-09-28T23:21:21.552Z,1.45
2022-09-28T23:23:58.365Z,1.60
2022-09-28T23:26:28.234Z,1.48
2022-09-28T23:28:57.333Z,2.13
2022-09-28T23:31:27.518Z,1.35
2022-09-28T23:34:03.253Z,1.63
2022-09-28T23:36:30.824Z,2.13
2022-09-28T23:38:57.978Z,1.45
2022-09-28T23:41:25.287Z,1.20
2022-09-28T23:43:52.495Z,1.60
2022-09-28T23:46:20.900Z,1.58
2022-09-28T23:48:49.783Z,1.60
2022-09-28T23:51:17.530Z,1.20
2022-09-28T23:53:45.525Z,1.85
2022-09-28T23:56:13.170Z,1.50
2022-09-28T23:58:40.285Z,1.30
